Time;durP1;ratioP1;P1;durP2;ratioP2;P2;SDS_P1;SDS_P2;PMS_P1;PMS_P2;Temp;Humidity;BMP_temperature;BMP_pressure;BME280_temperature;BME280_humidity;BME280_pressure;Samples;Min_cycle;Max_cycle;Signal;HPM_P1;HPM_P2
2022/06/11 00:01:35;;;;;;;68.30;13.85;;;;;;;18.33;57.38;99622.22;5012380;28;20041;-70
2022/06/11 00:04:10;;;;;;;46.80;14.10;;;;;;;18.29;57.71;99616.53;5045843;28;20053;-69
2022/06/11 00:06:41;;;;;;;52.97;13.00;;;;;;;18.28;58.06;99623.19;5046785;28;20164;-70
2022/06/11 00:09:08;;;;;;;50.00;14.05;;;;;;;18.23;58.49;99615.09;5045578;28;20041;-69
2022/06/11 00:11:35;;;;;;;;;;;;;;;18.27;58.29;99624.34;5042682;28;20048;-69
2022/06/11 00:14:02;;;;;;;50.55;15.20;;;;;;;18.22;58.11;99628.09;5046221;28;19999;-70
2022/06/11 00:16:29;;;;;;;67.57;15.05;;;;;;;18.18;58.62;99623.56;5027554;28;20056;-70
2022/06/11 00:18:57;;;;;;;60.42;16.08;;;;;;;18.17;59.06;99628.28;5042663;28;20137;-70
2022/06/11 00:21:27;;;;;;;60.05;16.80;;;;;;;18.13;58.97;99630.09;5026808;28;20045;-70
2022/06/11 00:23:53;;;;;;;60.15;17.50;;;;;;;18.09;59.25;99629.94;5026090;28;20114;-69
2022/06/11 00:26:20;;;;;;;63.15;16.95;;;;;;;18.08;59.65;99625.56;5046230;28;20089;-70
2022/06/11 00:28:47;;;;;;;69.78;17.38;;;;;;;18.06;60.07;99632.53;5076804;28;20065;-70
2022/06/11 00:31:13;;;;;;;76.03;17.50;;;;;;;18.03;60.58;99634.03;5074558;28;20064;-70
2022/06/11 00:33:40;;;;;;;54.93;19.10;;;;;;;17.98;60.63;99637.75;5042470;28;20437;-70
2022/06/11 00:36:08;;;;;;;60.07;18.70;;;;;;;17.96;60.51;99630.91;5046299;28;20353;-70
2022/06/11 00:38:36;;;;;;;65.45;20.50;;;;;;;17.94;60.86;99633.19;5043734;28;20353;-70
2022/06/11 00:41:03;;;;;;;69.25;20.58;;;;;;;17.89;61.06;99630.63;5044772;28;20052;-69
2022/06/11 00:43:30;;;;;;;62.05;20.92;;;;;;;17.84;61.39;99632.41;5043300;28;20037;-70
2022/06/11 00:46:01;;;;;;;61.40;21.30;;;;;;;17.81;61.73;99637.78;5046166;28;20345;-69
2022/06/11 00:48:31;;;;;;;56.42;17.95;;;;;;;17.80;61.63;99636.16;5045779;28;20049;-70
2022/06/11 00:51:01;;;;;;;75.30;18.75;;;;;;;17.77;61.39;99632.09;5076527;28;20053;-70
2022/06/11 00:53:32;;;;;;;56.30;17.10;;;;;;;17.78;61.54;99641.19;5026001;28;20052;-70
2022/06/11 00:56:02;;;;;;;73.72;18.70;;;;;;;17.77;61.78;99639.56;5043668;28;20049;-70
2022/06/11 00:58:33;;;;;;;60.65;17.75;;;;;;;17.77;61.59;99648.69;5042192;28;20161;-69
2022/06/11 01:01:01;;;;;;;78.22;19.25;;;;;;;17.78;62.05;99649.47;5042052;28;20590;-76
2022/06/11 01:03:31;;;;;;;70.68;18.55;;;;;;;17.79;62.24;99657.47;5044006;28;20052;-79
2022/06/11 01:06:06;;;;;;;57.70;16.58;;;;;;;17.81;61.91;99651.63;5043487;28;20149;-78
2022/06/11 01:08:42;;;;;;;49.50;16.95;;;;;;;17.84;62.02;99659.25;5044756;28;20603;-77
2022/06/11 01:11:38;;;;;;;71.38;17.02;;;;;;;17.85;61.37;99664.44;5043325;28;20057;-78
2022/06/11 01:14:19;;;;;;;69.88;16.50;;;;;;;17.85;61.06;99669.16;5043821;28;20135;-69
2022/06/11 01:16:56;;;;;;;69.75;20.33;;;;;;;17.85;61.68;99677.47;5041599;28;20049;-70
2022/06/11 01:19:58;;;;;;;70.50;18.27;;;;;;;17.84;62.03;99671.09;5075811;28;20051;-69
2022/06/11 01:22:40;;;;;;;66.47;17.80;;;;;;;17.85;61.55;99674.69;5043252;28;20052;-69
2022/06/11 01:25:11;;;;;;;70.32;15.20;;;;;;;17.88;61.65;99671.28;5045004;28;20111;-70
2022/06/11 01:28:02;;;;;;;60.65;17.98;;;;;;;17.85;61.45;99675.50;5040356;28;20049;-70
2022/06/11 01:30:33;;;;;;;58.75;17.42;;;;;;;17.88;61.46;99676.00;5040910;28;20538;-70
2022/06/11 01:33:10;;;;;;;73.32;20.85;;;;;;;17.87;61.63;99672.41;5073327;28;20103;-70
2022/06/11 01:35:46;;;;;;;82.68;22.30;;;;;;;17.87;61.49;99672.41;5056969;28;20136;-70
2022/06/11 01:38:22;;;;;;;97.53;22.38;;;;;;;17.89;61.18;99678.44;5040257;28;20044;-69
2022/06/11 01:40:54;;;;;;;92.82;22.60;;;;;;;17.91;61.03;99681.69;5023401;28;20041;-70
2022/06/11 01:43:28;;;;;;;92.88;22.55;;;;;;;17.93;61.23;99679.38;5042900;28;20040;-70
2022/06/11 01:45:55;;;;;;;80.55;19.58;;;;;;;17.95;60.67;99679.06;5044396;28;20048;-70
2022/06/11 01:48:25;;;;;;;97.07;23.33;;;;;;;17.94;61.17;99681.00;5042253;28;20163;-70
2022/06/11 01:51:03;;;;;;;83.22;21.25;;;;;;;17.94;60.93;99682.97;5024209;28;20073;-70
2022/06/11 01:53:57;;;;;;;74.53;22.77;;;;;;;17.93;61.39;99679.38;5041868;28;20044;-69
2022/06/11 01:56:57;;;;;;;96.43;23.67;;;;;;;17.93;61.25;99679.38;5042072;28;20053;-70
2022/06/11 01:59:47;;;;;;;75.50;24.05;;;;;;;18.01;61.61;99680.53;5040752;28;20045;-69
2022/06/11 02:02:29;;;;;;;88.95;21.67;;;;;;;18.05;61.28;99687.06;5041101;28;20049;-69
2022/06/11 02:05:03;;;;;;;87.43;21.15;;;;;;;18.09;60.93;99688.03;5040426;28;20127;-70
2022/06/11 02:07:42;;;;;;;75.00;21.20;;;;;;;18.08;60.62;99671.75;5042425;28;20041;-70
2022/06/11 02:10:17;;;;;;;70.85;19.92;;;;;;;18.14;60.19;99676.78;5041565;28;20040;-70
2022/06/11 02:12:48;;;;;;;52.65;19.98;;;;;;;18.20;59.73;99680.19;5042145;28;20072;-70
2022/06/11 02:15:21;;;;;;;67.82;18.08;;;;;;;18.25;59.75;99681.97;5043567;28;20047;-70
2022/06/11 02:17:54;;;;;;;69.55;19.90;;;;;;;18.28;59.59;99675.78;5057143;28;20044;-70
2022/06/11 02:20:25;;;;;;;89.57;18.73;;;;;;;18.30;59.39;99667.16;5040233;28;20512;-70
2022/06/11 02:22:55;;;;;;;83.97;19.20;;;;;;;18.28;59.95;99668.31;5041241;28;20151;-69
2022/06/11 02:25:26;;;;;;;60.97;18.38;;;;;;;18.30;59.61;99658.84;5042059;28;20512;-69
2022/06/11 02:27:55;;;;;;;73.72;18.48;;;;;;;18.30;59.76;99656.09;5041073;28;20048;-70
2022/06/11 02:30:25;;;;;;;62.30;17.45;;;;;;;18.36;59.61;99661.13;5037536;28;20135;-69
2022/06/11 02:32:53;;;;;;;76.90;17.75;;;;;;;18.43;59.25;99661.41;5041198;28;20053;-78
2022/06/11 02:35:29;;;;;;;54.28;15.95;;;;;;;18.48;58.69;99641.03;5024507;28;20557;-78
2022/06/11 02:37:56;;;;;;;46.40;14.50;;;;;;;18.50;58.64;99641.50;5076697;28;20524;-77
2022/06/11 02:40:25;;;;;;;36.33;14.32;;;;;;;18.54;58.37;99645.22;5043507;28;20041;-70
2022/06/11 02:42:52;;;;;;;37.67;13.50;;;;;;;18.56;57.90;99645.72;5041951;28;20534;-70
2022/06/11 02:45:18;;;;;;;41.80;12.55;;;;;;;18.66;57.82;99647.31;5042979;28;20060;-70
2022/06/11 02:47:48;;;;;;;39.88;12.38;;;;;;;18.74;56.81;99642.06;5023505;28;20049;-69
2022/06/11 02:50:19;;;;;;;33.70;11.55;;;;;;;18.80;56.50;99651.78;5041633;28;20049;-70
2022/06/11 02:52:46;;;;;;;27.15;11.48;;;;;;;18.87;56.09;99654.03;5074709;28;20107;-70
2022/06/11 02:55:12;;;;;;;29.67;10.68;;;;;;;18.90;55.47;99651.41;5043278;28;20052;-69
2022/06/11 02:57:38;;;;;;;32.35;12.43;;;;;;;18.99;55.41;99656.94;5042547;28;20139;-68
2022/06/11 03:00:06;;;;;;;23.65;9.55;;;;;;;19.04;55.28;99665.03;5042554;28;20051;-69
2022/06/11 03:02:32;;;;;;;24.17;9.75;;;;;;;19.06;55.12;99671.06;5039350;28;20107;-70
2022/06/11 03:04:58;;;;;;;29.02;10.10;;;;;;;19.08;54.63;99665.19;5041108;28;20507;-68
2022/06/11 03:07:25;;;;;;;20.80;9.70;;;;;;;19.18;54.53;99659.25;5042955;28;20176;-70
2022/06/11 03:09:51;;;;;;;26.77;9.73;;;;;;;19.23;54.52;99656.28;5041210;28;20049;-69
2022/06/11 03:12:18;;;;;;;21.73;10.55;;;;;;;19.27;54.53;99654.44;5040310;28;20052;-76
2022/06/11 03:14:45;;;;;;;31.97;10.77;;;;;;;19.34;53.92;99655.88;5055288;28;20060;-78
2022/06/11 03:17:15;;;;;;;24.35;9.77;;;;;;;19.37;53.67;99644.94;5041054;28;20516;-78
2022/06/11 03:19:42;;;;;;;32.35;10.05;;;;;;;19.43;53.56;99645.53;5042976;28;20060;-70
2022/06/11 03:22:08;;;;;;;27.48;11.00;;;;;;;19.47;53.28;99648.44;5023865;28;20041;-70
2022/06/11 03:24:36;;;;;;;21.08;10.23;;;;;;;19.53;53.15;99650.66;5039704;28;20040;-78
2022/06/11 03:27:04;;;;;;;35.78;10.65;;;;;;;19.58;53.19;99657.16;5040127;28;20534;-70
2022/06/11 03:29:30;;;;;;;31.10;15.32;;;;;;;19.63;52.78;99648.66;5042060;28;20057;-71
2022/06/11 03:31:56;;;;;;;23.70;10.18;;;;;;;19.68;52.39;99651.19;5042481;28;20059;-70
2022/06/11 03:34:22;;;;;;;31.80;9.98;;;;;;;19.73;52.33;99650.97;5045766;28;20506;-78
2022/06/11 03:36:55;;;;;;;23.63;10.48;;;;;;;19.77;52.54;99651.94;5044616;28;20057;-79
2022/06/11 03:39:21;;;;;;;32.08;11.02;;;;;;;19.81;52.55;99657.59;5061972;28;20516;-77
2022/06/11 03:41:49;;;;;;;26.90;10.30;;;;;;;19.86;52.40;99654.63;5047079;28;20064;-77
2022/06/11 03:44:16;;;;;;;38.70;10.77;;;;;;;19.90;52.09;99660.28;5012119;28;20143;-77
2022/06/11 03:46:42;;;;;;;22.95;9.40;;;;;;;19.97;51.90;99658.59;5045072;28;20604;-77
2022/06/11 03:49:08;;;;;;;30.27;9.87;;;;;;;20.02;51.80;99660.34;5043131;28;20511;-78
2022/06/11 03:51:34;;;;;;;24.60;9.77;;;;;;;20.12;51.53;99667.44;5045177;28;20072;-78
2022/06/11 03:54:01;;;;;;;33.88;9.88;;;;;;;20.17;51.29;99664.47;5042938;28;20562;-78
2022/06/11 03:56:27;;;;;;;28.83;9.15;;;;;;;20.17;50.98;99658.91;5043586;28;20110;-76
2022/06/11 03:58:55;;;;;;;25.98;8.52;;;;;;;20.25;50.93;99671.06;5044534;28;20057;-78
2022/06/11 04:01:23;;;;;;;26.10;9.25;;;;;;;20.34;50.65;99676.53;5027102;28;20040;-78
2022/06/11 04:03:53;;;;;;;18.00;8.43;;;;;;;20.39;50.18;99682.66;5045602;28;20480;-77
2022/06/11 04:06:22;;;;;;;26.95;8.98;;;;;;;20.48;50.06;99673.41;5043016;28;20533;-77
2022/06/11 04:08:48;;;;;;;22.02;8.35;;;;;;;20.60;49.96;99672.59;5043948;28;20052;-77
2022/06/11 04:11:15;;;;;;;23.13;8.52;;;;;;;20.67;49.51;99667.31;5044027;28;20045;-77
2022/06/11 04:13:44;;;;;;;26.30;8.50;;;;;;;20.74;48.65;99673.09;5026879;28;20053;-78
2022/06/11 04:16:22;;;;;;;26.73;7.50;;;;;;;20.83;48.51;99678.53;5043945;28;20044;-78
2022/06/11 04:18:50;;;;;;;22.70;7.93;;;;;;;20.89;48.15;99679.13;5044967;28;20554;-78
2022/06/11 04:21:17;;;;;;;18.75;7.90;;;;;;;20.90;47.80;99667.69;5046775;28;20586;-69
2022/06/11 04:23:47;;;;;;;21.23;7.38;;;;;;;20.93;47.60;99669.75;5046817;28;20064;-70
2022/06/11 04:26:17;;;;;;;22.45;7.55;;;;;;;21.02;47.79;99663.28;5044281;28;20149;-70
2022/06/11 04:28:43;;;;;;;19.05;7.10;;;;;;;21.10;47.66;99656.78;5026367;28;20049;-69
2022/06/11 04:31:11;;;;;;;21.75;7.65;;;;;;;21.21;47.49;99648.75;5043100;28;20037;-78
2022/06/11 04:33:38;;;;;;;25.90;8.90;;;;;;;21.28;47.18;99657.31;5026606;28;20056;-78
2022/06/11 04:36:05;;;;;;;23.55;8.05;;;;;;;21.34;46.93;99657.91;5026598;28;20397;-71
2022/06/11 04:38:32;;;;;;;26.00;8.05;;;;;;;21.37;47.15;99657.97;5043330;28;20662;-68
2022/06/11 04:40:58;;;;;;;20.97;8.43;;;;;;;21.41;46.81;99658.09;5047161;28;20049;-70
2022/06/11 04:43:24;;;;;;;19.73;8.10;;;;;;;21.47;46.21;99664.22;5041964;28;20307;-71
2022/06/11 04:45:50;;;;;;;30.85;8.43;;;;;;;21.47;46.36;99667.00;5043097;28;20427;-69
2022/06/11 04:48:16;;;;;;;24.58;8.13;;;;;;;21.51;45.78;99662.34;5043961;28;20053;-70
2022/06/11 04:50:44;;;;;;;23.45;7.75;;;;;;;21.60;45.67;99662.19;5041791;28;20041;-70
2022/06/11 04:53:10;;;;;;;21.42;7.13;;;;;;;21.70;45.55;99666.47;5025271;28;20068;-70
2022/06/11 04:55:36;;;;;;;31.20;7.70;;;;;;;21.77;45.03;99669.47;5024939;28;20053;-69
2022/06/11 04:58:03;;;;;;;24.10;8.57;;;;;;;21.83;44.97;99679.19;5043606;28;20106;-70
2022/06/11 05:00:31;;;;;;;18.95;7.28;;;;;;;21.94;44.67;99673.94;5044735;28;20064;-70
2022/06/11 05:02:58;;;;;;;20.35;7.60;;;;;;;22.03;44.57;99676.56;5043029;28;20103;-71
2022/06/11 05:05:25;;;;;;;23.15;7.72;;;;;;;22.07;44.57;99678.25;5024667;28;20045;-70
2022/06/11 05:07:52;;;;;;;30.45;8.05;;;;;;;22.07;44.39;99678.25;5025628;28;20080;-71
2022/06/11 05:10:21;;;;;;;27.33;7.55;;;;;;;22.00;45.12;99677.25;5041825;28;20048;-70
2022/06/11 05:12:47;;;;;;;28.73;7.53;;;;;;;21.96;44.25;99680.75;5042459;28;20049;-70
2022/06/11 05:15:13;;;;;;;19.30;7.38;;;;;;;21.98;43.92;99685.97;5041962;28;20036;-71
2022/06/11 05:17:40;;;;;;;19.87;7.03;;;;;;;22.17;43.79;99688.09;5024640;28;20071;-70
2022/06/11 05:20:09;;;;;;;17.67;6.75;;;;;;;22.39;43.14;99685.84;5045114;28;20049;-72
2022/06/11 05:22:36;;;;;;;19.70;6.43;;;;;;;22.58;42.61;99682.41;5040440;28;20076;-71
2022/06/11 05:25:05;;;;;;;19.60;6.30;;;;;;;22.75;42.04;99672.84;5040958;28;20061;-70
2022/06/11 05:27:31;;;;;;;24.40;7.40;;;;;;;22.89;41.47;99671.59;5043069;28;20090;-71
2022/06/11 05:30:00;;;;;;;25.03;6.37;;;;;;;23.08;41.10;99670.84;5008608;28;20098;-70
2022/06/11 05:32:29;;;;;;;46.85;7.20;;;;;;;23.26;40.52;99678.78;5041169;28;20140;-71
2022/06/11 05:34:56;;;;;;;20.13;6.78;;;;;;;23.40;40.72;99679.16;5040311;28;20422;-70
2022/06/11 05:37:23;;;;;;;26.00;6.18;;;;;;;23.65;39.95;99676.88;5044995;28;20049;-79
2022/06/11 05:39:49;;;;;;;22.47;6.13;;;;;;;23.83;39.74;99678.44;5024760;28;20144;-79
2022/06/11 05:42:19;;;;;;;19.80;6.28;;;;;;;24.01;38.70;99678.75;5041868;28;20068;-78
2022/06/11 05:44:45;;;;;;;29.10;7.20;;;;;;;24.17;38.67;99687.09;5041855;28;20064;-78
2022/06/11 05:47:14;;;;;;;17.92;5.78;;;;;;;24.33;38.22;99679.41;5043525;28;20542;-79
2022/06/11 05:49:45;;;;;;;26.42;6.93;;;;;;;24.34;39.06;99677.41;5042393;28;20213;-79
2022/06/11 05:52:15;;;;;;;34.13;7.70;;;;;;;24.21;40.46;99683.19;5044175;28;20045;-80
2022/06/11 05:54:42;;;;;;;22.27;7.47;;;;;;;24.10;41.32;99681.34;5041454;28;20466;-79
2022/06/11 05:57:12;;;;;;;22.33;7.13;;;;;;;23.91;41.80;99680.16;5043665;28;20592;-78
2022/06/11 05:59:43;;;;;;;19.65;7.10;;;;;;;23.68;42.33;99672.56;5008595;28;20064;-78
2022/06/11 06:02:12;;;;;;;17.38;7.32;;;;;;;23.46;42.86;99668.50;5041526;28;20048;-79
2022/06/11 06:04:38;;;;;;;20.27;6.95;;;;;;;23.49;43.18;99685.34;5042881;28;20068;-71
2022/06/11 06:07:05;;;;;;;43.20;9.45;;;;;;;23.55;43.45;99690.59;5042298;28;20523;-70
2022/06/11 06:09:31;;;;;;;29.13;9.00;;;;;;;23.55;43.61;99687.81;5042916;28;20486;-70
2022/06/11 06:11:57;;;;;;;28.55;9.95;;;;;;;23.69;43.64;99701.25;5023355;28;20603;-71
2022/06/11 06:14:24;;;;;;;23.13;8.77;;;;;;;23.94;43.10;99694.22;5040657;28;20432;-79
2022/06/11 06:16:52;;;;;;;27.50;8.63;;;;;;;24.40;42.18;99694.66;5042674;28;20045;-78
2022/06/11 06:19:18;;;;;;;23.60;7.70;;;;;;;24.74;41.19;99694.84;5042326;28;20626;-78
2022/06/11 06:21:45;;;;;;;22.45;8.50;;;;;;;24.88;40.49;99703.50;5042973;28;20052;-79
2022/06/11 06:24:11;;;;;;;22.67;8.10;;;;;;;24.83;41.13;99711.41;5041442;28;20087;-79
2022/06/11 06:26:38;;;;;;;21.25;8.13;;;;;;;24.58;41.78;99708.97;5042386;28;20067;-78
2022/06/11 06:29:05;;;;;;;25.48;8.93;;;;;;;24.35;41.93;99715.31;5042244;28;20052;-79
2022/06/11 06:31:31;;;;;;;22.42;8.85;;;;;;;24.19;42.22;99709.84;5041570;28;20079;-78
2022/06/11 06:34:01;;;;;;;26.20;8.02;;;;;;;23.93;42.43;99714.94;5023869;28;20072;-79
2022/06/11 06:36:27;;;;;;;21.70;8.00;;;;;;;23.73;42.83;99705.75;5042007;28;20045;-70
2022/06/11 06:38:54;;;;;;;20.83;7.65;;;;;;;23.63;43.03;99714.69;5040027;28;20056;-70
2022/06/11 06:41:21;;;;;;;16.77;7.10;;;;;;;23.62;42.77;99710.28;5044647;28;20072;-70
2022/06/11 06:43:48;;;;;;;29.80;7.85;;;;;;;23.60;42.30;99719.03;5039142;28;20479;-70
2022/06/11 06:46:15;;;;;;;22.27;7.40;;;;;;;23.57;42.56;99716.97;5040676;28;20550;-70
2022/06/11 06:48:43;;;;;;;18.85;7.85;;;;;;;23.59;42.87;99716.59;5024238;28;20075;-70
2022/06/11 06:51:12;;;;;;;30.17;8.70;;;;;;;23.59;42.80;99713.81;5074040;28;20060;-70
2022/06/11 06:53:39;;;;;;;25.23;8.15;;;;;;;23.58;42.86;99721.38;5024446;28;20076;-71
2022/06/11 06:56:06;;;;;;;21.77;8.05;;;;;;;23.55;42.94;99715.72;5024294;28;20083;-70
2022/06/11 06:58:33;;;;;;;19.17;7.63;;;;;;;23.56;42.93;99711.75;5040106;28;20082;-70
2022/06/11 07:00:59;;;;;;;29.08;7.22;;;;;;;23.60;42.14;99707.88;5035194;28;20049;-71
2022/06/11 07:03:25;;;;;;;20.35;6.72;;;;;;;23.63;42.22;99712.72;5033920;28;20068;-70
2022/06/11 07:05:52;;;;;;;22.27;7.17;;;;;;;23.78;41.77;99718.59;5022937;28;20057;-70
2022/06/11 07:08:20;;;;;;;24.77;7.30;;;;;;;23.98;41.30;99718.59;5023194;28;20312;-70
2022/06/11 07:10:48;;;;;;;29.13;7.80;;;;;;;24.16;40.96;99716.19;5026087;28;20130;-71
2022/06/11 07:13:14;;;;;;;17.92;7.10;;;;;;;24.48;40.45;99715.97;5044336;28;20135;-71
2022/06/11 07:15:41;;;;;;;29.17;7.57;;;;;;;24.97;39.76;99722.78;5043819;28;20103;-71
2022/06/11 07:18:13;;;;;;;29.10;8.23;;;;;;;25.24;39.25;99722.03;5042744;28;20094;-71
2022/06/11 07:20:41;;;;;;;21.15;6.85;;;;;;;25.56;38.65;99727.28;5046682;28;20052;-70
2022/06/11 07:23:12;;;;;;;25.52;7.47;;;;;;;25.76;37.99;99731.56;5043050;28;20053;-70
2022/06/11 07:25:42;;;;;;;26.98;7.10;;;;;;;25.49;37.86;99736.41;4690520;28;10000481;-70
2022/06/11 07:28:17;;;;;;;15.23;5.88;;;;;;;25.20;37.91;99744.34;5021620;28;20053;-71
2022/06/11 07:30:45;;;;;;;14.50;5.32;;;;;;;25.01;38.10;99740.47;5022579;28;20503;-70
2022/06/11 07:33:14;;;;;;;16.05;7.55;;;;;;;24.94;38.36;99728.34;5020506;28;20049;-70
2022/06/11 07:35:40;;;;;;;21.02;5.63;;;;;;;24.95;37.92;99725.16;5039160;28;20556;-70
2022/06/11 07:38:13;;;;;;;19.60;5.60;;;;;;;25.08;37.54;99727.75;5039784;28;20060;-71
2022/06/11 07:40:41;;;;;;;25.67;5.53;;;;;;;25.10;37.44;99720.63;5042507;28;20044;-70
2022/06/11 07:43:08;;;;;;;17.38;6.07;;;;;;;25.15;36.89;99730.69;5039603;28;20044;-71
2022/06/11 07:45:35;;;;;;;25.63;9.40;;;;;;;24.98;37.71;99730.03;5041028;28;20495;-70
2022/06/11 07:48:01;;;;;;;22.65;5.75;;;;;;;24.71;38.46;99729.94;5043231;28;20853;-69
2022/06/11 07:50:31;;;;;;;27.00;6.55;;;;;;;24.53;38.65;99726.03;5042832;28;20527;-70
2022/06/11 07:52:58;;;;;;;19.05;6.82;;;;;;;24.40;39.54;99728.19;5037552;28;20427;-70
2022/06/11 07:55:25;;;;;;;23.20;5.90;;;;;;;24.35;39.48;99737.66;5047371;28;20047;-70
2022/06/11 07:57:53;;;;;;;26.35;6.00;;;;;;;24.36;38.74;99730.94;5033194;28;20037;-70
2022/06/11 08:00:22;;;;;;;14.57;5.28;;;;;;;24.26;38.63;99721.16;5039914;28;20045;-70
2022/06/11 08:02:48;;;;;;;18.05;5.68;;;;;;;24.19;38.93;99735.78;5054646;28;20889;-71
2022/06/11 08:05:15;;;;;;;21.77;5.80;;;;;;;24.07;39.25;99735.97;5054565;28;20045;-71
2022/06/11 08:07:41;;;;;;;20.70;7.13;;;;;;;23.94;40.28;99738.88;5040976;28;20063;-79
2022/06/11 08:10:09;;;;;;;30.00;8.07;;;;;;;23.94;41.33;99747.25;5038626;28;20424;-79
2022/06/11 08:12:37;;;;;;;17.38;5.88;;;;;;;24.00;41.33;99744.97;5054633;28;20073;-79
2022/06/11 08:15:06;;;;;;;22.95;6.47;;;;;;;24.02;40.25;99744.59;5033889;28;20105;-79
2022/06/11 08:17:33;;;;;;;30.10;6.82;;;;;;;24.04;40.30;99747.84;5051947;28;20049;-79
2022/06/11 08:20:01;;;;;;;22.75;6.13;;;;;;;23.97;40.13;99745.72;5051025;28;20355;-79
2022/06/11 08:22:29;;;;;;;26.52;6.40;;;;;;;23.82;40.37;99744.59;5026453;28;20146;-79
2022/06/11 08:24:55;;;;;;;24.87;5.67;;;;;;;23.73;40.63;99750.41;5043623;28;20072;-78
2022/06/11 08:27:21;;;;;;;21.27;8.88;;;;;;;23.60;40.91;99746.13;5041828;28;20189;-81
2022/06/11 08:29:48;;;;;;;14.60;6.85;;;;;;;23.54;40.88;99745.59;5040689;28;20507;-78
2022/06/11 08:32:15;;;;;;;15.75;5.32;;;;;;;23.42;40.34;99746.53;5040762;28;20071;-79
2022/06/11 08:34:45;;;;;;;16.00;5.35;;;;;;;23.40;40.86;99742.47;5039140;28;20515;-78
2022/06/11 08:37:11;;;;;;;17.35;5.47;;;;;;;23.39;40.89;99747.25;5038693;28;20067;-78
2022/06/11 08:39:37;;;;;;;14.02;5.22;;;;;;;23.39;40.81;99749.22;5037844;28;20080;-78
2022/06/11 08:42:04;;;;;;;15.57;5.45;;;;;;;23.36;41.12;99746.00;5040034;28;20041;-78
2022/06/11 08:44:33;;;;;;;20.70;5.00;;;;;;;23.36;41.76;99748.00;5039792;28;20477;-78
2022/06/11 08:47:04;;;;;;;20.30;5.75;;;;;;;23.39;43.24;99750.03;5038440;28;20053;-78
2022/06/11 08:49:37;;;;;;;19.05;5.15;;;;;;;23.39;42.58;99755.63;5040698;28;20049;-77
2022/06/11 08:52:09;;;;;;;19.42;5.60;;;;;;;23.34;43.17;99751.13;5038281;28;20126;-77
2022/06/11 08:54:42;;;;;;;17.10;6.45;;;;;;;23.44;43.14;99751.75;5037551;28;20519;-78
2022/06/11 08:57:16;;;;;;;17.70;5.13;;;;;;;23.51;42.86;99755.50;5039337;28;20052;-76
2022/06/11 09:00:04;;;;;;;23.08;5.70;;;;;;;23.41;42.88;99760.81;5038352;28;20040;-76
2022/06/11 09:02:53;;;;;;;19.23;5.70;;;;;;;23.42;42.76;99752.09;5022803;28;20049;-76
2022/06/11 09:05:33;;;;;;;21.73;5.03;;;;;;;23.51;41.28;99746.31;5038605;28;20099;-78
2022/06/11 09:08:19;;;;;;;17.88;4.70;;;;;;;23.52;40.80;99750.72;5041619;28;20148;-78
2022/06/11 09:11:08;;;;;;;16.45;5.38;;;;;;;23.57;40.35;99741.28;5038949;28;20037;-77
2022/06/11 09:13:55;;;;;;;13.80;4.75;;;;;;;23.58;41.11;99746.50;5054458;28;20407;-78
2022/06/11 09:16:35;;;;;;;13.43;4.63;;;;;;;23.55;40.31;99746.41;5022615;28;20045;-78
2022/06/11 09:19:22;;;;;;;17.58;5.18;;;;;;;23.33;40.15;99752.31;5038909;28;20110;-78
2022/06/11 09:22:00;;;;;;;16.67;4.80;;;;;;;23.11;40.83;99747.38;5046389;28;20052;-78
2022/06/11 09:24:45;;;;;;;15.27;4.53;;;;;;;22.93;41.83;99762.47;5048974;28;20055;-69
2022/06/11 09:27:17;;;;;;;30.17;5.47;;;;;;;22.75;42.34;99764.00;5038724;28;20210;-69
2022/06/11 09:29:52;;;;;;;19.75;5.88;;;;;;;22.66;43.30;99759.41;5035953;28;20139;-69
2022/06/11 09:32:25;;;;;;;21.98;5.80;;;;;;;22.65;44.33;99759.78;5020539;28;20439;-70
2022/06/11 09:34:54;;;;;;;28.52;6.00;;;;;;;22.71;43.98;99755.56;5036539;28;20155;-69
2022/06/11 09:37:25;;;;;;;28.13;5.80;;;;;;;22.74;44.17;99754.03;5037435;28;20041;-70
2022/06/11 09:40:00;;;;;;;29.98;6.13;;;;;;;22.74;44.10;99754.03;5038763;28;20561;-69
2022/06/11 09:42:53;;;;;;;18.17;5.90;;;;;;;22.89;44.71;99760.78;5034613;28;20049;-73
2022/06/11 09:45:25;;;;;;;23.60;5.95;;;;;;;22.93;43.41;99754.13;5034865;28;20578;-69
2022/06/11 09:48:01;;;;;;;23.00;5.93;;;;;;;22.84;42.53;99747.13;5039781;28;20061;-69
2022/06/11 09:50:35;;;;;;;18.42;6.20;;;;;;;22.78;42.68;99750.16;5006578;28;20654;-69
2022/06/11 09:53:19;;;;;;;25.30;6.63;;;;;;;22.90;42.56;99751.22;5037361;28;20059;-69
2022/06/11 09:55:56;;;;;;;20.38;5.50;;;;;;;23.10;42.17;99754.91;5041612;28;20040;-69
2022/06/11 09:58:29;;;;;;;19.30;5.88;;;;;;;23.31;41.29;99760.22;5040920;28;20049;-70
2022/06/11 10:00:58;;;;;;;19.83;5.85;;;;;;;23.58;40.98;99751.25;5043834;28;20049;-69
2022/06/11 10:03:35;;;;;;;16.98;5.82;;;;;;;23.89;40.27;99749.53;5042716;28;20106;-69
2022/06/11 10:06:07;;;;;;;25.65;5.90;;;;;;;24.01;39.89;99752.16;5043215;28;20140;-69
2022/06/11 10:08:41;;;;;;;18.70;5.57;;;;;;;23.96;39.96;99746.06;5026017;28;20053;-69
2022/06/11 10:11:19;;;;;;;17.85;5.15;;;;;;;23.88;40.57;99747.91;5042949;28;20072;-69
2022/06/11 10:13:50;;;;;;;21.25;5.65;;;;;;;23.96;40.20;99743.28;5042795;28;20071;-69
2022/06/11 10:16:28;;;;;;;13.00;5.78;;;;;;;24.04;41.03;99733.88;5041814;28;20714;-69
2022/06/11 10:19:00;;;;;;;16.27;5.80;;;;;;;23.99;41.27;99728.56;5041776;28;20136;-69
2022/06/11 10:21:30;;;;;;;18.70;5.43;;;;;;;23.95;40.99;99739.66;5042421;28;20413;-70
2022/06/11 10:24:02;;;;;;;13.88;5.47;;;;;;;23.84;41.65;99736.66;5042844;28;20082;-69
2022/06/11 10:26:32;;;;;;;23.73;6.25;;;;;;;23.89;41.64;99732.78;5044493;28;20111;-69
2022/06/11 10:29:06;;;;;;;27.27;6.03;;;;;;;24.05;41.36;99741.91;5042497;28;20049;-69
2022/06/11 10:31:37;;;;;;;23.08;6.07;;;;;;;24.11;41.51;99738.81;5044502;28;20049;-70
2022/06/11 10:34:11;;;;;;;22.45;6.20;;;;;;;24.08;41.88;99735.56;5025474;28;20048;-69
2022/06/11 10:36:41;;;;;;;15.38;5.07;;;;;;;24.02;41.97;99731.47;5039588;28;20045;-70
2022/06/11 10:39:13;;;;;;;14.57;5.07;;;;;;;23.89;42.57;99735.56;5038119;28;20055;-68
2022/06/11 10:41:44;;;;;;;14.68;5.80;;;;;;;23.92;42.75;99732.84;5042133;28;20103;-69
2022/06/11 10:44:26;;;;;;;25.05;5.82;;;;;;;24.07;42.98;99731.16;5045534;28;20045;-68
2022/06/11 10:46:52;;;;;;;22.48;6.32;;;;;;;24.35;43.16;99730.09;5044790;28;20053;-78
2022/06/11 10:49:22;;;;;;;17.15;5.25;;;;;;;24.68;42.62;99730.69;5048465;28;20459;-78
2022/06/11 10:51:56;;;;;;;19.58;5.97;;;;;;;24.74;42.71;99728.38;5041579;28;20078;-77
2022/06/11 10:54:25;;;;;;;17.30;5.90;;;;;;;24.67;42.59;99723.50;5045364;28;20053;-78
2022/06/11 10:56:56;;;;;;;16.58;5.53;;;;;;;24.55;42.41;99732.06;5042439;28;20049;-78
2022/06/11 10:59:27;;;;;;;18.25;7.05;;;;;;;24.34;42.95;99734.09;5028627;28;20080;-79
2022/06/11 11:02:02;;;;;;;20.20;7.18;;;;;;;23.95;44.06;99728.50;5042379;28;20569;-79
2022/06/11 11:04:40;;;;;;;20.85;7.55;;;;;;;23.81;45.15;99731.03;5034827;28;20327;-78
2022/06/11 11:07:13;;;;;;;20.98;7.40;;;;;;;23.61;45.82;99722.63;5019626;28;20049;-80
2022/06/11 11:09:41;;;;;;;30.15;8.27;;;;;;;23.57;45.74;99736.50;5019523;28;20042;-79
2022/06/11 11:12:19;;;;;;;22.90;7.25;;;;;;;23.52;45.36;99736.78;4986926;28;20046;-79
2022/06/11 11:14:55;;;;;;;17.42;6.32;;;;;;;23.54;44.75;99733.63;5019404;28;20126;-78
2022/06/11 11:17:24;;;;;;;20.00;7.20;;;;;;;23.60;44.63;99737.75;5042285;28;20045;-79
2022/06/11 11:22:38;;;;;;;;;;;;;;;23.55;44.45;99735.25;5046807;28;20055;-70
2022/06/11 11:25:15;;;;;;;26.52;7.22;;;;;;;23.61;44.53;99740.19;5041962;28;20066;-78
2022/06/11 11:27:46;;;;;;;19.02;7.03;;;;;;;23.71;44.38;99741.59;5032238;28;20053;-80
2022/06/11 11:30:27;;;;;;;17.90;6.53;;;;;;;23.62;44.21;99739.00;5075478;28;20386;-78
2022/06/11 11:32:54;;;;;;;18.52;6.72;;;;;;;23.56;44.52;99740.44;5045766;28;20114;-78
2022/06/11 11:35:22;;;;;;;21.98;7.40;;;;;;;23.51;44.66;99743.53;5043968;28;20051;-79
2022/06/11 11:37:58;;;;;;;20.90;7.30;;;;;;;23.50;45.20;99739.13;4698419;28;10000356;-77
2022/06/11 11:40:29;;;;;;;23.50;7.40;;;;;;;23.70;44.98;99734.38;5062178;28;20139;-79
2022/06/11 11:42:56;;;;;;;21.95;7.57;;;;;;;24.08;44.16;99737.59;5050642;28;20547;-79